首页
METAR-TAF:

METAR-TAF

机场 :

科威特國際機場

科威特, 科威特

纬度: 29-13N, 经度: 047-59E, 海拔: 55米

当前天气观测

该预报发布于31分钟前的13:00 UTC
风速12节,风向西北
温度 41°C
湿度 12%
气压 1008 hPa
能见度10公里或以上
1500米以下无云,无积雨云

METAR: OKBK 221300Z 32012KT CAVOK 41/06 Q1008 NOSIG

时间: 16:31 (13:31 UTC)

预报

该预报发布于2小时和46分钟前的10:45 UTC
预报有效从22日的 12点(UTC)到 23日的 18点(UTC)
风速12节,风向,有时为22节阵风
能見度: 6000
天空无云
短暂存在
从 22日的 12点(UTC)到 22日的 19点(UTC)
能見度: 4000
高吹尘

TAF: OKBK 221045Z 2212/2318 35012G22KT 6000 SKC TEMPO 2212/2219 4000 BLDU

超过4000个机场的气象观测和天气预报(METAR&TAF报告)。

可查询的气象台以黄色和红色小点在地图上表示。

将鼠标移到小点上方,可查看气象台名称。

然后点击查看天气观测和预报。

如需切换地图:点击带黑十字的绿色按钮放大地图;点击带横线的绿色按钮缩小地图;或者点击绿色箭头查看邻近地区的地图。


METAR-TAF: